sensor_id;sensor_type;location;lat;lon;timestamp;P1;durP1;ratioP1;P2;durP2;ratioP2
10761;SDS011;5433;50.862;4.320;2022-07-12T00:02:21;2.72;;;2.53;;
10761;SDS011;5433;50.862;4.320;2022-07-12T00:04:47;4.05;;;2.50;;
10761;SDS011;5433;50.862;4.320;2022-07-12T00:07:14;3.08;;;2.17;;
10761;SDS011;5433;50.862;4.320;2022-07-12T00:09:40;2.72;;;2.45;;
10761;SDS011;5433;50.862;4.320;2022-07-12T00:12:06;2.67;;;2.47;;
10761;SDS011;5433;50.862;4.320;2022-07-12T00:14:32;4.93;;;2.63;;
10761;SDS011;5433;50.862;4.320;2022-07-12T00:16:58;4.80;;;2.80;;
10761;SDS011;5433;50.862;4.320;2022-07-12T00:19:25;3.17;;;2.42;;
10761;SDS011;5433;50.862;4.320;2022-07-12T00:21:51;3.95;;;2.90;;
10761;SDS011;5433;50.862;4.320;2022-07-12T00:24:17;2.78;;;2.58;;
10761;SDS011;5433;50.862;4.320;2022-07-12T00:26:43;3.92;;;2.78;;
10761;SDS011;5433;50.862;4.320;2022-07-12T00:29:09;4.57;;;2.90;;
10761;SDS011;5433;50.862;4.320;2022-07-12T00:31:35;3.28;;;2.97;;
10761;SDS011;5433;50.862;4.320;2022-07-12T00:34:01;3.40;;;3.10;;
10761;SDS011;5433;50.862;4.320;2022-07-12T00:36:27;3.17;;;2.88;;
10761;SDS011;5433;50.862;4.320;2022-07-12T00:38:53;3.20;;;2.90;;
10761;SDS011;5433;50.862;4.320;2022-07-12T00:41:21;4.28;;;3.10;;
10761;SDS011;5433;50.862;4.320;2022-07-12T00:43:47;4.05;;;2.97;;
10761;SDS011;5433;50.862;4.320;2022-07-12T00:46:14;3.67;;;3.03;;
10761;SDS011;5433;50.862;4.320;2022-07-12T00:48:40;3.45;;;3.05;;
10761;SDS011;5433;50.862;4.320;2022-07-12T00:51:06;3.35;;;3.00;;
10761;SDS011;5433;50.862;4.320;2022-07-12T00:53:32;3.53;;;3.22;;
10761;SDS011;5433;50.862;4.320;2022-07-12T00:55:58;4.68;;;3.35;;
10761;SDS011;5433;50.862;4.320;2022-07-12T00:58:24;3.40;;;2.90;;
10761;SDS011;5433;50.862;4.320;2022-07-12T01:00:51;3.45;;;3.15;;
10761;SDS011;5433;50.862;4.320;2022-07-12T01:03:17;4.05;;;3.00;;
10761;SDS011;5433;50.862;4.320;2022-07-12T01:05:44;4.28;;;3.22;;
10761;SDS011;5433;50.862;4.320;2022-07-12T01:08:11;4.90;;;3.10;;
10761;SDS011;5433;50.862;4.320;2022-07-12T01:10:39;4.68;;;3.05;;
10761;SDS011;5433;50.862;4.320;2022-07-12T01:13:05;3.20;;;2.90;;
10761;SDS011;5433;50.862;4.320;2022-07-12T01:15:31;3.47;;;3.17;;
10761;SDS011;5433;50.862;4.320;2022-07-12T01:17:58;2.90;;;2.70;;
10761;SDS011;5433;50.862;4.320;2022-07-12T01:20:24;3.58;;;3.30;;
10761;SDS011;5433;50.862;4.320;2022-07-12T01:22:54;3.55;;;3.25;;
10761;SDS011;5433;50.862;4.320;2022-07-12T01:25:22;3.50;;;3.20;;
10761;SDS011;5433;50.862;4.320;2022-07-12T01:27:49;3.35;;;3.10;;
10761;SDS011;5433;50.862;4.320;2022-07-12T01:30:15;3.33;;;3.03;;
10761;SDS011;5433;50.862;4.320;2022-07-12T01:32:41;4.03;;;3.30;;
10761;SDS011;5433;50.862;4.320;2022-07-12T01:35:08;3.95;;;2.92;;
10761;SDS011;5433;50.862;4.320;2022-07-12T01:37:35;3.92;;;3.28;;
10761;SDS011;5433;50.862;4.320;2022-07-12T01:40:02;3.92;;;3.30;;
10761;SDS011;5433;50.862;4.320;2022-07-12T01:42:28;4.47;;;3.25;;
10761;SDS011;5433;50.862;4.320;2022-07-12T01:44:55;3.40;;;3.20;;
10761;SDS011;5433;50.862;4.320;2022-07-12T01:47:23;3.63;;;3.33;;
10761;SDS011;5433;50.862;4.320;2022-07-12T01:49:49;4.40;;;3.80;;
10761;SDS011;5433;50.862;4.320;2022-07-12T01:52:15;4.47;;;3.60;;
10761;SDS011;5433;50.862;4.320;2022-07-12T01:54:41;4.30;;;3.85;;
10761;SDS011;5433;50.862;4.320;2022-07-12T01:57:07;3.97;;;3.67;;
10761;SDS011;5433;50.862;4.320;2022-07-12T01:59:34;3.83;;;3.53;;
10761;SDS011;5433;50.862;4.320;2022-07-12T02:02:01;5.18;;;3.63;;
10761;SDS011;5433;50.862;4.320;2022-07-12T02:04:27;3.85;;;3.50;;
10761;SDS011;5433;50.862;4.320;2022-07-12T02:06:53;3.88;;;3.40;;
10761;SDS011;5433;50.862;4.320;2022-07-12T02:09:20;4.50;;;3.70;;
10761;SDS011;5433;50.862;4.320;2022-07-12T02:11:46;3.80;;;3.50;;
10761;SDS011;5433;50.862;4.320;2022-07-12T02:14:12;5.82;;;3.85;;
10761;SDS011;5433;50.862;4.320;2022-07-12T02:16:39;4.30;;;3.40;;
10761;SDS011;5433;50.862;4.320;2022-07-12T02:19:05;4.25;;;3.85;;
10761;SDS011;5433;50.862;4.320;2022-07-12T02:21:31;3.70;;;3.40;;
10761;SDS011;5433;50.862;4.320;2022-07-12T02:23:58;3.90;;;3.53;;
10761;SDS011;5433;50.862;4.320;2022-07-12T02:26:24;3.88;;;3.20;;
10761;SDS011;5433;50.862;4.320;2022-07-12T02:28:50;3.72;;;3.40;;
10761;SDS011;5433;50.862;4.320;2022-07-12T02:31:16;5.57;;;3.20;;
10761;SDS011;5433;50.862;4.320;2022-07-12T02:33:43;3.40;;;3.10;;
10761;SDS011;5433;50.862;4.320;2022-07-12T02:36:09;3.53;;;3.17;;
10761;SDS011;5433;50.862;4.320;2022-07-12T02:38:35;4.28;;;3.20;;
10761;SDS011;5433;50.862;4.320;2022-07-12T02:41:01;3.80;;;3.42;;
10761;SDS011;5433;50.862;4.320;2022-07-12T02:43:28;4.95;;;3.53;;
10761;SDS011;5433;50.862;4.320;2022-07-12T02:45:55;3.67;;;3.33;;
10761;SDS011;5433;50.862;4.320;2022-07-12T02:48:21;4.10;;;3.65;;
10761;SDS011;5433;50.862;4.320;2022-07-12T02:50:47;5.28;;;3.28;;
10761;SDS011;5433;50.862;4.320;2022-07-12T02:53:14;3.88;;;3.58;;
10761;SDS011;5433;50.862;4.320;2022-07-12T02:55:40;3.50;;;3.20;;
10761;SDS011;5433;50.862;4.320;2022-07-12T02:58:06;4.60;;;3.63;;
10761;SDS011;5433;50.862;4.320;2022-07-12T03:00:32;3.63;;;3.33;;
10761;SDS011;5433;50.862;4.320;2022-07-12T03:02:59;5.00;;;3.58;;
10761;SDS011;5433;50.862;4.320;2022-07-12T03:05:25;3.70;;;3.40;;
10761;SDS011;5433;50.862;4.320;2022-07-12T03:07:51;4.38;;;3.15;;
10761;SDS011;5433;50.862;4.320;2022-07-12T03:10:17;3.90;;;3.30;;
10761;SDS011;5433;50.862;4.320;2022-07-12T03:12:43;4.05;;;3.65;;
10761;SDS011;5433;50.862;4.320;2022-07-12T03:15:09;5.15;;;3.92;;
10761;SDS011;5433;50.862;4.320;2022-07-12T03:17:35;4.50;;;4.10;;
10761;SDS011;5433;50.862;4.320;2022-07-12T03:20:02;4.15;;;3.50;;
10761;SDS011;5433;50.862;4.320;2022-07-12T03:22:30;4.15;;;3.80;;
10761;SDS011;5433;50.862;4.320;2022-07-12T03:24:56;4.32;;;3.92;;
10761;SDS011;5433;50.862;4.320;2022-07-12T03:27:22;4.57;;;4.15;;
10761;SDS011;5433;50.862;4.320;2022-07-12T03:29:48;4.55;;;4.15;;
10761;SDS011;5433;50.862;4.320;2022-07-12T03:32:14;5.22;;;4.18;;
10761;SDS011;5433;50.862;4.320;2022-07-12T03:34:41;4.38;;;3.97;;
10761;SDS011;5433;50.862;4.320;2022-07-12T03:37:07;5.82;;;4.30;;
10761;SDS011;5433;50.862;4.320;2022-07-12T03:39:33;5.03;;;4.50;;
10761;SDS011;5433;50.862;4.320;2022-07-12T03:41:59;5.40;;;4.38;;
10761;SDS011;5433;50.862;4.320;2022-07-12T03:44:25;4.35;;;3.95;;
10761;SDS011;5433;50.862;4.320;2022-07-12T03:46:51;5.13;;;4.47;;
10761;SDS011;5433;50.862;4.320;2022-07-12T03:49:17;4.72;;;4.28;;
10761;SDS011;5433;50.862;4.320;2022-07-12T03:51:43;5.07;;;4.30;;
10761;SDS011;5433;50.862;4.320;2022-07-12T03:54:09;4.88;;;4.30;;
10761;SDS011;5433;50.862;4.320;2022-07-12T03:56:35;4.45;;;4.07;;
10761;SDS011;5433;50.862;4.320;2022-07-12T03:59:24;6.63;;;3.90;;
10761;SDS011;5433;50.862;4.320;2022-07-12T04:01:50;7.10;;;4.30;;
10761;SDS011;5433;50.862;4.320;2022-07-12T04:04:16;4.85;;;4.10;;
10761;SDS011;5433;50.862;4.320;2022-07-12T04:06:42;5.68;;;4.30;;
10761;SDS011;5433;50.862;4.320;2022-07-12T04:09:08;4.28;;;3.88;;
10761;SDS011;5433;50.862;4.320;2022-07-12T04:11:34;5.63;;;4.10;;
10761;SDS011;5433;50.862;4.320;2022-07-12T04:14:00;6.47;;;4.13;;
10761;SDS011;5433;50.862;4.320;2022-07-12T04:16:26;4.68;;;4.25;;
10761;SDS011;5433;50.862;4.320;2022-07-12T04:18:54;5.93;;;4.38;;
10761;SDS011;5433;50.862;4.320;2022-07-12T04:21:20;5.00;;;4.25;;
10761;SDS011;5433;50.862;4.320;2022-07-12T04:23:46;4.75;;;4.35;;
10761;SDS011;5433;50.862;4.320;2022-07-12T04:26:12;6.82;;;5.35;;
10761;SDS011;5433;50.862;4.320;2022-07-12T04:28:38;6.00;;;5.40;;
10761;SDS011;5433;50.862;4.320;2022-07-12T04:31:05;5.40;;;4.90;;
10761;SDS011;5433;50.862;4.320;2022-07-12T04:33:34;5.20;;;4.70;;
10761;SDS011;5433;50.862;4.320;2022-07-12T04:36:00;5.32;;;4.90;;
10761;SDS011;5433;50.862;4.320;2022-07-12T04:38:26;5.25;;;4.75;;
10761;SDS011;5433;50.862;4.320;2022-07-12T04:40:52;6.20;;;4.75;;
10761;SDS011;5433;50.862;4.320;2022-07-12T04:43:18;5.93;;;4.65;;
10761;SDS011;5433;50.862;4.320;2022-07-12T04:45:45;6.53;;;4.40;;
10761;SDS011;5433;50.862;4.320;2022-07-12T04:48:11;4.80;;;4.30;;
10761;SDS011;5433;50.862;4.320;2022-07-12T04:50:37;5.10;;;4.50;;
10761;SDS011;5433;50.862;4.320;2022-07-12T04:53:03;5.65;;;4.78;;
10761;SDS011;5433;50.862;4.320;2022-07-12T04:55:29;5.43;;;3.80;;
10761;SDS011;5433;50.862;4.320;2022-07-12T04:57:55;4.43;;;4.03;;
10761;SDS011;5433;50.862;4.320;2022-07-12T05:00:22;4.53;;;3.90;;
10761;SDS011;5433;50.862;4.320;2022-07-12T05:02:48;4.85;;;4.13;;
10761;SDS011;5433;50.862;4.320;2022-07-12T05:05:14;4.35;;;4.05;;
10761;SDS011;5433;50.862;4.320;2022-07-12T05:07:41;5.80;;;4.40;;
10761;SDS011;5433;50.862;4.320;2022-07-12T05:10:07;5.63;;;4.22;;
10761;SDS011;5433;50.862;4.320;2022-07-12T05:12:36;4.80;;;4.38;;
10761;SDS011;5433;50.862;4.320;2022-07-12T05:15:03;5.68;;;4.40;;
10761;SDS011;5433;50.862;4.320;2022-07-12T05:17:29;4.43;;;4.13;;
10761;SDS011;5433;50.862;4.320;2022-07-12T05:19:55;5.15;;;4.63;;
10761;SDS011;5433;50.862;4.320;2022-07-12T05:22:22;5.20;;;4.50;;
10761;SDS011;5433;50.862;4.320;2022-07-12T05:24:48;5.25;;;4.20;;
10761;SDS011;5433;50.862;4.320;2022-07-12T05:27:14;5.50;;;4.47;;
10761;SDS011;5433;50.862;4.320;2022-07-12T05:29:40;4.95;;;4.45;;
10761;SDS011;5433;50.862;4.320;2022-07-12T05:32:06;5.97;;;4.78;;
10761;SDS011;5433;50.862;4.320;2022-07-12T05:34:32;5.75;;;4.68;;
10761;SDS011;5433;50.862;4.320;2022-07-12T05:36:58;6.18;;;4.78;;
10761;SDS011;5433;50.862;4.320;2022-07-12T05:39:24;5.78;;;4.88;;
10761;SDS011;5433;50.862;4.320;2022-07-12T05:41:50;6.53;;;5.32;;
10761;SDS011;5433;50.862;4.320;2022-07-12T05:44:16;6.13;;;5.20;;
10761;SDS011;5433;50.862;4.320;2022-07-12T05:46:44;5.38;;;4.88;;
10761;SDS011;5433;50.862;4.320;2022-07-12T05:49:10;5.82;;;5.22;;
10761;SDS011;5433;50.862;4.320;2022-07-12T05:51:36;5.57;;;5.07;;
10761;SDS011;5433;50.862;4.320;2022-07-12T05:54:20;7.18;;;5.32;;
10761;SDS011;5433;50.862;4.320;2022-07-12T05:56:46;7.05;;;5.40;;
10761;SDS011;5433;50.862;4.320;2022-07-12T05:59:13;6.38;;;5.30;;
10761;SDS011;5433;50.862;4.320;2022-07-12T06:01:39;6.57;;;5.47;;
10761;SDS011;5433;50.862;4.320;2022-07-12T06:04:06;6.97;;;6.10;;
10761;SDS011;5433;50.862;4.320;2022-07-12T06:06:32;8.07;;;5.80;;
10761;SDS011;5433;50.862;4.320;2022-07-12T06:08:58;6.00;;;5.50;;
10761;SDS011;5433;50.862;4.320;2022-07-12T06:11:24;8.55;;;6.82;;
10761;SDS011;5433;50.862;4.320;2022-07-12T06:13:50;7.32;;;6.53;;
10761;SDS011;5433;50.862;4.320;2022-07-12T06:16:17;8.57;;;7.43;;
10761;SDS011;5433;50.862;4.320;2022-07-12T06:18:43;7.80;;;7.00;;
10761;SDS011;5433;50.862;4.320;2022-07-12T06:21:09;7.68;;;7.03;;
10761;SDS011;5433;50.862;4.320;2022-07-12T06:23:35;7.70;;;6.78;;
10761;SDS011;5433;50.862;4.320;2022-07-12T06:26:01;7.50;;;6.85;;
10761;SDS011;5433;50.862;4.320;2022-07-12T06:28:27;7.47;;;6.72;;
10761;SDS011;5433;50.862;4.320;2022-07-12T06:30:53;8.00;;;7.28;;
10761;SDS011;5433;50.862;4.320;2022-07-12T06:33:19;8.75;;;8.05;;
10761;SDS011;5433;50.862;4.320;2022-07-12T06:35:45;8.32;;;7.50;;
10761;SDS011;5433;50.862;4.320;2022-07-12T06:38:11;8.45;;;7.63;;
10761;SDS011;5433;50.862;4.320;2022-07-12T06:40:37;8.88;;;8.00;;
10761;SDS011;5433;50.862;4.320;2022-07-12T06:43:08;8.65;;;7.88;;
10761;SDS011;5433;50.862;4.320;2022-07-12T06:45:35;8.25;;;7.60;;
10761;SDS011;5433;50.862;4.320;2022-07-12T06:48:01;8.38;;;7.63;;
10761;SDS011;5433;50.862;4.320;2022-07-12T06:50:27;8.63;;;7.82;;
10761;SDS011;5433;50.862;4.320;2022-07-12T06:52:53;8.60;;;7.75;;
10761;SDS011;5433;50.862;4.320;2022-07-12T06:55:19;8.55;;;7.22;;
10761;SDS011;5433;50.862;4.320;2022-07-12T06:57:45;7.38;;;6.68;;
10761;SDS011;5433;50.862;4.320;2022-07-12T07:00:11;7.38;;;6.68;;
10761;SDS011;5433;50.862;4.320;2022-07-12T07:02:40;7.30;;;6.65;;
10761;SDS011;5433;50.862;4.320;2022-07-12T07:05:06;7.55;;;6.85;;
10761;SDS011;5433;50.862;4.320;2022-07-12T07:07:34;8.15;;;7.20;;
10761;SDS011;5433;50.862;4.320;2022-07-12T07:10:00;8.30;;;7.50;;
10761;SDS011;5433;50.862;4.320;2022-07-12T07:12:26;8.00;;;7.30;;
10761;SDS011;5433;50.862;4.320;2022-07-12T07:14:52;7.97;;;7.18;;
10761;SDS011;5433;50.862;4.320;2022-07-12T07:17:19;8.48;;;7.78;;
10761;SDS011;5433;50.862;4.320;2022-07-12T07:19:45;7.80;;;7.13;;
10761;SDS011;5433;50.862;4.320;2022-07-12T07:22:12;7.80;;;7.10;;
10761;SDS011;5433;50.862;4.320;2022-07-12T07:24:39;7.93;;;7.13;;
10761;SDS011;5433;50.862;4.320;2022-07-12T07:27:05;8.18;;;7.05;;
10761;SDS011;5433;50.862;4.320;2022-07-12T07:29:31;8.13;;;6.95;;
10761;SDS011;5433;50.862;4.320;2022-07-12T07:32:16;7.57;;;6.78;;
10761;SDS011;5433;50.862;4.320;2022-07-12T07:34:42;7.32;;;6.43;;
10761;SDS011;5433;50.862;4.320;2022-07-12T07:37:08;8.38;;;6.85;;
10761;SDS011;5433;50.862;4.320;2022-07-12T07:39:35;7.20;;;6.50;;
10761;SDS011;5433;50.862;4.320;2022-07-12T07:42:01;8.18;;;6.43;;
10761;SDS011;5433;50.862;4.320;2022-07-12T07:44:27;7.40;;;6.70;;
10761;SDS011;5433;50.862;4.320;2022-07-12T07:46:53;7.88;;;6.40;;
10761;SDS011;5433;50.862;4.320;2022-07-12T07:49:19;7.57;;;6.88;;
10761;SDS011;5433;50.862;4.320;2022-07-12T07:51:45;8.05;;;6.97;;
10761;SDS011;5433;50.862;4.320;2022-07-12T07:54:11;7.72;;;6.95;;
10761;SDS011;5433;50.862;4.320;2022-07-12T07:56:37;7.45;;;6.82;;
10761;SDS011;5433;50.862;4.320;2022-07-12T07:59:03;6.88;;;6.28;;
10761;SDS011;5433;50.862;4.320;2022-07-12T08:01:29;7.45;;;6.72;;
10761;SDS011;5433;50.862;4.320;2022-07-12T08:04:14;8.23;;;6.78;;
10761;SDS011;5433;50.862;4.320;2022-07-12T08:06:40;6.82;;;6.22;;
10761;SDS011;5433;50.862;4.320;2022-07-12T08:09:07;7.13;;;6.10;;
10761;SDS011;5433;50.862;4.320;2022-07-12T08:11:33;7.18;;;6.47;;
10761;SDS011;5433;50.862;4.320;2022-07-12T08:13:59;6.05;;;5.55;;
10761;SDS011;5433;50.862;4.320;2022-07-12T08:16:25;8.63;;;6.00;;
10761;SDS011;5433;50.862;4.320;2022-07-12T08:18:52;6.30;;;5.60;;
10761;SDS011;5433;50.862;4.320;2022-07-12T08:21:18;6.43;;;5.75;;
10761;SDS011;5433;50.862;4.320;2022-07-12T08:23:44;6.40;;;5.70;;
10761;SDS011;5433;50.862;4.320;2022-07-12T08:26:10;6.68;;;6.18;;
10761;SDS011;5433;50.862;4.320;2022-07-12T08:28:36;7.60;;;5.93;;
10761;SDS011;5433;50.862;4.320;2022-07-12T08:31:02;6.70;;;6.00;;
10761;SDS011;5433;50.862;4.320;2022-07-12T08:33:28;6.45;;;5.95;;
10761;SDS011;5433;50.862;4.320;2022-07-12T08:35:54;6.70;;;6.10;;
10761;SDS011;5433;50.862;4.320;2022-07-12T08:38:20;7.20;;;6.43;;
10761;SDS011;5433;50.862;4.320;2022-07-12T08:40:46;6.88;;;6.15;;
10761;SDS011;5433;50.862;4.320;2022-07-12T08:43:12;6.45;;;5.95;;
10761;SDS011;5433;50.862;4.320;2022-07-12T08:45:38;6.55;;;5.82;;
10761;SDS011;5433;50.862;4.320;2022-07-12T08:48:05;6.40;;;5.80;;
10761;SDS011;5433;50.862;4.320;2022-07-12T08:50:32;5.60;;;5.20;;
10761;SDS011;5433;50.862;4.320;2022-07-12T08:52:58;5.63;;;4.57;;
10761;SDS011;5433;50.862;4.320;2022-07-12T08:55:28;5.18;;;4.78;;
10761;SDS011;5433;50.862;4.320;2022-07-12T08:57:56;5.60;;;5.10;;
10761;SDS011;5433;50.862;4.320;2022-07-12T09:00:22;5.57;;;5.00;;
10761;SDS011;5433;50.862;4.320;2022-07-12T09:02:55;5.68;;;5.10;;
10761;SDS011;5433;50.862;4.320;2022-07-12T09:05:23;4.85;;;4.45;;
10761;SDS011;5433;50.862;4.320;2022-07-12T09:07:50;8.70;;;5.15;;
10761;SDS011;5433;50.862;4.320;2022-07-12T09:10:17;5.00;;;4.55;;
10761;SDS011;5433;50.862;4.320;2022-07-12T09:12:43;4.88;;;4.47;;
10761;SDS011;5433;50.862;4.320;2022-07-12T09:15:13;5.35;;;4.95;;
10761;SDS011;5433;50.862;4.320;2022-07-12T09:17:40;5.60;;;5.05;;
10761;SDS011;5433;50.862;4.320;2022-07-12T09:20:09;5.57;;;5.15;;
10761;SDS011;5433;50.862;4.320;2022-07-12T09:22:36;5.50;;;5.00;;
10761;SDS011;5433;50.862;4.320;2022-07-12T09:25:15;5.30;;;4.80;;
10761;SDS011;5433;50.862;4.320;2022-07-12T09:27:48;6.25;;;5.50;;
10761;SDS011;5433;50.862;4.320;2022-07-12T09:30:16;5.45;;;4.95;;
10761;SDS011;5433;50.862;4.320;2022-07-12T09:35:39;5.43;;;4.78;;
10761;SDS011;5433;50.862;4.320;2022-07-12T09:38:25;5.70;;;4.43;;
10761;SDS011;5433;50.862;4.320;2022-07-12T09:40:52;4.80;;;4.32;;
10761;SDS011;5433;50.862;4.320;2022-07-12T09:43:18;4.80;;;4.40;;
10761;SDS011;5433;50.862;4.320;2022-07-12T09:45:46;4.70;;;4.30;;
10761;SDS011;5433;50.862;4.320;2022-07-12T09:48:12;6.85;;;4.80;;
10761;SDS011;5433;50.862;4.320;2022-07-12T09:50:39;6.45;;;4.60;;
10761;SDS011;5433;50.862;4.320;2022-07-12T09:53:05;4.95;;;4.55;;
10761;SDS011;5433;50.862;4.320;2022-07-12T09:55:36;4.93;;;4.47;;
10761;SDS011;5433;50.862;4.320;2022-07-12T09:58:03;4.90;;;4.43;;
10761;SDS011;5433;50.862;4.320;2022-07-12T10:00:30;4.85;;;4.45;;
10761;SDS011;5433;50.862;4.320;2022-07-12T10:02:57;4.78;;;4.38;;
10761;SDS011;5433;50.862;4.320;2022-07-12T10:05:24;5.28;;;4.78;;
10761;SDS011;5433;50.862;4.320;2022-07-12T10:07:50;6.78;;;4.50;;
10761;SDS011;5433;50.862;4.320;2022-07-12T10:10:17;5.80;;;5.20;;
10761;SDS011;5433;50.862;4.320;2022-07-12T10:12:43;5.20;;;4.70;;
10761;SDS011;5433;50.862;4.320;2022-07-12T10:15:17;5.22;;;4.80;;
10761;SDS011;5433;50.862;4.320;2022-07-12T10:17:44;5.70;;;5.20;;
10761;SDS011;5433;50.862;4.320;2022-07-12T10:20:19;5.47;;;4.97;;
10761;SDS011;5433;50.862;4.320;2022-07-12T10:22:48;5.35;;;4.85;;
10761;SDS011;5433;50.862;4.320;2022-07-12T10:25:29;7.72;;;4.50;;
10761;SDS011;5433;50.862;4.320;2022-07-12T10:27:56;5.18;;;4.32;;
10761;SDS011;5433;50.862;4.320;2022-07-12T10:30:23;5.82;;;4.45;;
10761;SDS011;5433;50.862;4.320;2022-07-12T10:32:53;4.97;;;4.50;;
10761;SDS011;5433;50.862;4.320;2022-07-12T10:35:22;4.93;;;4.43;;
10761;SDS011;5433;50.862;4.320;2022-07-12T10:40:33;5.78;;;4.82;;
10761;SDS011;5433;50.862;4.320;2022-07-12T10:45:36;4.60;;;4.20;;
10761;SDS011;5433;50.862;4.320;2022-07-12T10:48:06;4.47;;;4.07;;
10761;SDS011;5433;50.862;4.320;2022-07-12T10:58:33;5.05;;;4.35;;
10761;SDS011;5433;50.862;4.320;2022-07-12T11:01:04;4.53;;;4.13;;
10761;SDS011;5433;50.862;4.320;2022-07-12T11:03:31;8.63;;;4.63;;
10761;SDS011;5433;50.862;4.320;2022-07-12T11:06:01;4.40;;;4.07;;
10761;SDS011;5433;50.862;4.320;2022-07-12T11:08:28;5.20;;;4.30;;
10761;SDS011;5433;50.862;4.320;2022-07-12T11:10:58;4.80;;;4.40;;
10761;SDS011;5433;50.862;4.320;2022-07-12T11:13:24;4.20;;;3.90;;
10761;SDS011;5433;50.862;4.320;2022-07-12T11:18:32;5.63;;;4.10;;
10761;SDS011;5433;50.862;4.320;2022-07-12T11:20:59;5.80;;;4.20;;
10761;SDS011;5433;50.862;4.320;2022-07-12T11:23:25;4.32;;;3.95;;
10761;SDS011;5433;50.862;4.320;2022-07-12T11:26:10;7.15;;;3.80;;
10761;SDS011;5433;50.862;4.320;2022-07-12T11:28:37;4.10;;;3.70;;
10761;SDS011;5433;50.862;4.320;2022-07-12T11:33:33;4.32;;;3.92;;
10761;SDS011;5433;50.862;4.320;2022-07-12T11:36:00;4.53;;;4.13;;
10761;SDS011;5433;50.862;4.320;2022-07-12T11:38:28;4.80;;;4.20;;
10761;SDS011;5433;50.862;4.320;2022-07-12T11:40:57;5.18;;;4.28;;
10761;SDS011;5433;50.862;4.320;2022-07-12T11:43:24;4.40;;;4.10;;
10761;SDS011;5433;50.862;4.320;2022-07-12T11:45:51;4.47;;;4.07;;
10761;SDS011;5433;50.862;4.320;2022-07-12T11:48:18;5.50;;;4.05;;
10761;SDS011;5433;50.862;4.320;2022-07-12T11:50:44;4.20;;;3.83;;
10761;SDS011;5433;50.862;4.320;2022-07-12T11:53:14;4.53;;;4.10;;
10761;SDS011;5433;50.862;4.320;2022-07-12T11:55:45;4.40;;;4.00;;
10761;SDS011;5433;50.862;4.320;2022-07-12T11:58:12;4.88;;;4.30;;
10761;SDS011;5433;50.862;4.320;2022-07-12T12:00:38;4.35;;;3.92;;
10761;SDS011;5433;50.862;4.320;2022-07-12T12:03:05;5.80;;;3.70;;
10761;SDS011;5433;50.862;4.320;2022-07-12T12:05:32;4.30;;;3.90;;
10761;SDS011;5433;50.862;4.320;2022-07-12T12:07:59;4.63;;;3.67;;
10761;SDS011;5433;50.862;4.320;2022-07-12T12:10:25;3.90;;;3.60;;
10761;SDS011;5433;50.862;4.320;2022-07-12T12:12:51;4.15;;;3.83;;
10761;SDS011;5433;50.862;4.320;2022-07-12T12:15:25;4.00;;;3.70;;
10761;SDS011;5433;50.862;4.320;2022-07-12T12:17:58;4.43;;;4.00;;
10761;SDS011;5433;50.862;4.320;2022-07-12T12:22:54;3.80;;;3.35;;
10761;SDS011;5433;50.862;4.320;2022-07-12T12:25:20;4.13;;;3.75;;
10761;SDS011;5433;50.862;4.320;2022-07-12T12:28:05;4.35;;;3.42;;
10761;SDS011;5433;50.862;4.320;2022-07-12T12:30:35;4.22;;;3.47;;
10761;SDS011;5433;50.862;4.320;2022-07-12T12:33:13;3.28;;;3.05;;
10761;SDS011;5433;50.862;4.320;2022-07-12T12:35:39;4.25;;;3.40;;
10761;SDS011;5433;50.862;4.320;2022-07-12T12:38:12;3.58;;;3.13;;
10761;SDS011;5433;50.862;4.320;2022-07-12T12:40:38;3.92;;;3.63;;
10761;SDS011;5433;50.862;4.320;2022-07-12T12:43:08;3.20;;;2.90;;
10761;SDS011;5433;50.862;4.320;2022-07-12T12:45:36;4.28;;;3.40;;
10761;SDS011;5433;50.862;4.320;2022-07-12T12:48:03;3.30;;;3.10;;
10761;SDS011;5433;50.862;4.320;2022-07-12T12:50:39;5.32;;;3.58;;
10761;SDS011;5433;50.862;4.320;2022-07-12T12:53:11;4.40;;;3.13;;
10761;SDS011;5433;50.862;4.320;2022-07-12T12:55:37;3.78;;;2.60;;
10761;SDS011;5433;50.862;4.320;2022-07-12T12:58:04;3.53;;;2.63;;
10761;SDS011;5433;50.862;4.320;2022-07-12T13:00:30;3.38;;;2.55;;
10761;SDS011;5433;50.862;4.320;2022-07-12T13:02:57;4.45;;;2.67;;
10761;SDS011;5433;50.862;4.320;2022-07-12T13:05:24;3.17;;;2.88;;
10761;SDS011;5433;50.862;4.320;2022-07-12T13:07:51;5.35;;;3.00;;
10761;SDS011;5433;50.862;4.320;2022-07-12T13:10:17;3.50;;;2.70;;
10761;SDS011;5433;50.862;4.320;2022-07-12T13:12:43;3.83;;;2.50;;
10761;SDS011;5433;50.862;4.320;2022-07-12T13:15:12;2.63;;;2.42;;
10761;SDS011;5433;50.862;4.320;2022-07-12T13:17:38;3.05;;;2.70;;
10761;SDS011;5433;50.862;4.320;2022-07-12T13:20:04;3.33;;;2.67;;
10761;SDS011;5433;50.862;4.320;2022-07-12T13:22:32;2.90;;;2.70;;
10761;SDS011;5433;50.862;4.320;2022-07-12T13:24:58;3.05;;;2.75;;
10761;SDS011;5433;50.862;4.320;2022-07-12T13:27:24;2.88;;;2.63;;
10761;SDS011;5433;50.862;4.320;2022-07-12T13:29:54;3.30;;;2.83;;
10761;SDS011;5433;50.862;4.320;2022-07-12T13:32:20;3.40;;;3.10;;
10761;SDS011;5433;50.862;4.320;2022-07-12T13:34:47;3.45;;;3.15;;
10761;SDS011;5433;50.862;4.320;2022-07-12T13:37:13;3.58;;;2.88;;
10761;SDS011;5433;50.862;4.320;2022-07-12T13:39:39;3.75;;;3.30;;
10761;SDS011;5433;50.862;4.320;2022-07-12T13:42:24;3.38;;;2.90;;
10761;SDS011;5433;50.862;4.320;2022-07-12T13:44:50;4.50;;;3.53;;
10761;SDS011;5433;50.862;4.320;2022-07-12T13:47:16;4.68;;;2.95;;
10761;SDS011;5433;50.862;4.320;2022-07-12T13:49:42;3.95;;;2.88;;
10761;SDS011;5433;50.862;4.320;2022-07-12T13:52:08;4.10;;;2.95;;
10761;SDS011;5433;50.862;4.320;2022-07-12T13:54:34;3.00;;;2.70;;
10761;SDS011;5433;50.862;4.320;2022-07-12T13:57:00;3.10;;;2.80;;
10761;SDS011;5433;50.862;4.320;2022-07-12T13:59:26;2.83;;;2.60;;
10761;SDS011;5433;50.862;4.320;2022-07-12T14:01:52;3.30;;;3.00;;
10761;SDS011;5433;50.862;4.320;2022-07-12T14:04:18;3.28;;;2.60;;
10761;SDS011;5433;50.862;4.320;2022-07-12T14:06:44;3.55;;;2.90;;
10761;SDS011;5433;50.862;4.320;2022-07-12T14:09:12;3.22;;;2.90;;
10761;SDS011;5433;50.862;4.320;2022-07-12T14:11:38;5.38;;;2.70;;
10761;SDS011;5433;50.862;4.320;2022-07-12T14:14:05;3.95;;;2.47;;
10761;SDS011;5433;50.862;4.320;2022-07-12T14:16:32;3.00;;;2.72;;
10761;SDS011;5433;50.862;4.320;2022-07-12T14:18:59;2.60;;;2.40;;
10761;SDS011;5433;50.862;4.320;2022-07-12T14:21:26;2.80;;;2.60;;
10761;SDS011;5433;50.862;4.320;2022-07-12T14:23:58;5.32;;;2.97;;
10761;SDS011;5433;50.862;4.320;2022-07-12T14:26:25;4.28;;;3.00;;
10761;SDS011;5433;50.862;4.320;2022-07-12T14:28:53;4.00;;;2.60;;
10761;SDS011;5433;50.862;4.320;2022-07-12T14:31:19;3.22;;;2.53;;
10761;SDS011;5433;50.862;4.320;2022-07-12T14:33:45;3.08;;;2.60;;
10761;SDS011;5433;50.862;4.320;2022-07-12T14:36:11;3.53;;;2.67;;
10761;SDS011;5433;50.862;4.320;2022-07-12T14:38:38;4.40;;;2.75;;
10761;SDS011;5433;50.862;4.320;2022-07-12T14:41:04;3.08;;;2.10;;
10761;SDS011;5433;50.862;4.320;2022-07-12T14:43:30;3.03;;;2.45;;
10761;SDS011;5433;50.862;4.320;2022-07-12T14:45:56;4.13;;;2.17;;
10761;SDS011;5433;50.862;4.320;2022-07-12T14:48:22;2.83;;;2.30;;
10761;SDS011;5433;50.862;4.320;2022-07-12T14:50:48;3.85;;;2.10;;
10761;SDS011;5433;50.862;4.320;2022-07-12T14:53:14;3.83;;;2.10;;
10761;SDS011;5433;50.862;4.320;2022-07-12T14:55:40;3.35;;;1.95;;
10761;SDS011;5433;50.862;4.320;2022-07-12T14:58:06;2.40;;;2.20;;
10761;SDS011;5433;50.862;4.320;2022-07-12T15:00:34;4.22;;;2.20;;
10761;SDS011;5433;50.862;4.320;2022-07-12T15:03:00;2.72;;;2.10;;
10761;SDS011;5433;50.862;4.320;2022-07-12T15:05:26;2.70;;;2.22;;
10761;SDS011;5433;50.862;4.320;2022-07-12T15:07:53;2.60;;;2.40;;
10761;SDS011;5433;50.862;4.320;2022-07-12T15:10:19;4.63;;;2.30;;
10761;SDS011;5433;50.862;4.320;2022-07-12T15:12:45;2.58;;;2.38;;
10761;SDS011;5433;50.862;4.320;2022-07-12T15:15:11;3.33;;;2.20;;
10761;SDS011;5433;50.862;4.320;2022-07-12T15:17:37;2.95;;;2.22;;
10761;SDS011;5433;50.862;4.320;2022-07-12T15:20:03;2.40;;;2.20;;
10761;SDS011;5433;50.862;4.320;2022-07-12T15:22:30;2.40;;;2.20;;
10761;SDS011;5433;50.862;4.320;2022-07-12T15:24:56;2.50;;;2.30;;